Time;durP1;ratioP1;P1;durP2;ratioP2;P2;SDS_P1;SDS_P2;PMS_P1;PMS_P2;Temp;Humidity;BMP_temperature;BMP_pressure;BME280_temperature;BME280_humidity;BME280_pressure;Samples;Min_cycle;Max_cycle;Signal;HPM_P1;HPM_P2
2023/03/01 00:01:59;;;;;;;2.27;2.07;;;22.30;53.40;;;;;;4996876;28;20444;-88
2023/03/01 00:04:27;;;;;;;2.20;2.10;;;22.30;53.50;;;;;;4997359;28;20447;-89
2023/03/01 00:06:54;;;;;;;2.87;2.67;;;22.30;53.40;;;;;;4998952;28;20476;-88
2023/03/01 00:09:21;;;;;;;2.40;2.20;;;22.30;53.40;;;;;;4996939;28;20549;-88
2023/03/01 00:11:48;;;;;;;2.40;2.20;;;22.30;53.40;;;;;;4997320;28;20448;-88
2023/03/01 00:14:16;;;;;;;2.43;2.23;;;22.20;53.40;;;;;;5001509;28;20496;-88
2023/03/01 00:16:46;;;;;;;2.43;2.23;;;22.20;53.20;;;;;;5005120;28;20933;-88
2023/03/01 00:19:16;;;;;;;2.33;2.13;;;22.20;53.30;;;;;;5008512;23;20446;-88
2023/03/01 00:21:43;;;;;;;2.20;2.00;;;22.20;53.20;;;;;;4973883;28;20510;-88
2023/03/01 00:24:12;;;;;;;3.40;2.57;;;22.20;53.20;;;;;;4977720;28;20505;-88
2023/03/01 00:26:39;;;;;;;2.80;2.60;;;22.40;53.30;;;;;;4994265;23;20484;-88
2023/03/01 00:29:07;;;;;;;1.77;1.67;;;22.10;53.20;;;;;;5002408;28;20440;-89
2023/03/01 00:31:36;;;;;;;2.07;1.87;;;22.10;53.20;;;;;;5003379;28;20444;-88
2023/03/01 00:34:27;;;;;;;2.47;2.27;;;22.10;53.20;;;;;;5005085;28;20480;-88
2023/03/01 00:36:53;;;;;;;2.17;1.97;;;22.10;53.30;;;;;;4985527;28;20429;-89
2023/03/01 00:39:20;;;;;;;2.00;1.80;;;22.10;53.10;;;;;;4981284;28;20452;-88
2023/03/01 00:41:47;;;;;;;2.50;2.30;;;22.10;53.10;;;;;;4980836;28;21020;-90
2023/03/01 00:44:14;;;;;;;2.60;2.40;;;22.10;53.00;;;;;;4977847;28;20449;-90
2023/03/01 00:46:41;;;;;;;2.27;2.00;;;22.10;52.90;;;;;;4980998;28;20457;-90
2023/03/01 00:49:08;;;;;;;2.17;1.97;;;22.10;53.00;;;;;;4998381;23;20575;-89
2023/03/01 00:51:36;;;;;;;2.27;2.07;;;22.00;52.90;;;;;;5002091;28;20436;-90
2023/03/01 00:56:34;;;;;;;2.50;2.30;;;22.00;53.00;;;;;;4998308;28;20872;-90
2023/03/01 00:59:01;;;;;;;2.07;1.87;;;22.00;53.50;;;;;;5011927;23;20514;-89
2023/03/01 01:01:30;;;;;;;1.90;1.80;;;22.00;53.00;;;;;;5003735;28;20515;-90
2023/03/01 01:04:00;;;;;;;2.10;1.93;;;22.00;52.90;;;;;;5002305;28;20448;-90
2023/03/01 01:06:33;;;;;;;2.73;2.53;;;22.00;52.90;;;;;;5000415;28;20904;-90
2023/03/01 01:09:06;;;;;;;2.23;2.03;;;22.00;52.90;;;;;;5002798;28;20475;-90
2023/03/01 01:11:34;;;;;;;2.70;2.50;;;22.00;53.10;;;;;;5002011;28;20441;-90
2023/03/01 01:14:01;;;;;;;2.67;2.03;;;22.10;53.10;;;;;;4997787;28;20567;-90
2023/03/01 01:16:30;;;;;;;2.50;2.30;;;21.90;52.90;;;;;;4998575;28;20440;-90
2023/03/01 01:18:57;;;;;;;2.60;2.40;;;21.90;52.90;;;;;;4999242;28;20491;-90
2023/03/01 01:21:25;;;;;;;2.53;2.33;;;21.90;52.90;;;;;;4998021;28;20452;-90
2023/03/01 01:23:54;;;;;;;2.30;2.10;;;21.90;52.90;;;;;;4998726;28;20451;-90
2023/03/01 01:26:23;;;;;;;1.90;1.80;;;21.90;52.90;;;;;;4998314;28;20452;-90
2023/03/01 01:28:51;;;;;;;2.10;2.00;;;21.90;52.90;;;;;;5001897;28;20466;-89
2023/03/01 01:31:19;;;;;;;2.20;2.10;;;21.90;52.90;;;;;;5001901;28;20440;-90
2023/03/01 01:33:46;;;;;;;2.30;2.10;;;21.90;52.90;;;;;;5001078;28;20484;-90
2023/03/01 01:36:13;;;;;;;2.67;2.47;;;21.80;52.70;;;;;;5001880;28;20454;-90
2023/03/01 01:38:42;;;;;;;2.20;2.00;;;21.90;52.80;;;;;;5002036;28;20448;-90
2023/03/01 01:41:11;;;;;;;2.47;2.27;;;21.90;52.80;;;;;;5000223;28;20472;-90
2023/03/01 01:43:41;;;;;;;2.30;2.20;;;21.80;52.70;;;;;;5000147;28;20520;-90
2023/03/01 01:46:20;;;;;;;3.50;2.37;;;21.80;52.70;;;;;;5000642;28;20443;-90
2023/03/01 01:48:50;;;;;;;2.47;2.27;;;21.80;52.80;;;;;;5000496;28;20482;-90
2023/03/01 01:51:22;;;;;;;2.40;2.20;;;21.80;52.70;;;;;;5007148;23;20419;-90
2023/03/01 01:53:54;;;;;;;2.50;2.30;;;21.90;52.80;;;;;;5000210;28;20491;-88
2023/03/01 01:56:22;;;;;;;2.20;2.00;;;21.80;52.70;;;;;;5000751;28;20450;-88
2023/03/01 01:58:53;;;;;;;2.27;2.07;;;21.90;52.80;;;;;;4999423;28;20442;-88
2023/03/01 02:01:21;;;;;;;2.20;2.00;;;21.70;52.60;;;;;;4999699;28;20444;-88
2023/03/01 02:03:50;;;;;;;2.37;2.17;;;21.70;52.60;;;;;;5000241;28;20444;-88
2023/03/01 02:06:23;;;;;;;2.60;2.40;;;21.70;52.70;;;;;;5000042;28;20990;-88
2023/03/01 02:08:53;;;;;;;2.43;2.27;;;21.70;52.70;;;;;;4999331;28;20539;-88
2023/03/01 02:11:21;;;;;;;2.67;2.47;;;21.90;52.90;;;;;;5001466;28;20534;-90
2023/03/01 02:13:53;;;;;;;2.30;2.10;;;21.70;52.60;;;;;;5002619;28;20492;-88
2023/03/01 02:16:20;;;;;;;2.57;2.37;;;21.80;53.40;;;;;;5003366;28;20444;-88
2023/03/01 02:18:48;;;;;;;2.57;2.13;;;21.60;52.60;;;;;;5002520;28;20461;-88
2023/03/01 02:21:33;;;;;;;2.37;2.17;;;21.60;52.60;;;;;;5002922;28;20455;-88
2023/03/01 02:24:08;;;;;;;2.97;2.43;;;21.70;52.70;;;;;;5001718;28;20451;-88
2023/03/01 02:26:42;;;;;;;2.13;2.00;;;21.60;52.60;;;;;;5002628;28;20432;-88
2023/03/01 02:29:11;;;;;;;2.70;2.50;;;21.60;52.60;;;;;;5000944;28;20993;-88
2023/03/01 02:31:45;;;;;;;2.50;2.30;;;21.60;52.70;;;;;;4999768;28;20498;-88
2023/03/01 02:34:14;;;;;;;1.73;1.63;;;21.60;52.60;;;;;;5006787;28;20584;-88
2023/03/01 02:36:50;;;;;;;1.87;1.77;;;21.60;52.70;;;;;;5007494;28;20499;-88
2023/03/01 02:39:21;;;;;;;2.63;2.43;;;21.60;52.60;;;;;;5003054;28;20503;-88
2023/03/01 02:41:52;;;;;;;2.50;2.20;;;21.60;52.60;;;;;;5005767;28;20504;-88
2023/03/01 02:44:26;;;;;;;2.97;2.73;;;21.70;52.70;;;;;;5007084;28;20443;-88
2023/03/01 02:46:56;;;;;;;2.47;2.27;;;21.60;52.60;;;;;;5001018;28;20463;-88
2023/03/01 02:49:26;;;;;;;2.27;2.07;;;21.50;52.50;;;;;;4998333;28;20447;-88
2023/03/01 02:52:12;;;;;;;2.43;2.23;;;21.50;52.60;;;;;;4998448;28;20472;-88
2023/03/01 02:54:46;;;;;;;2.50;2.30;;;21.50;52.60;;;;;;4997547;28;20567;-88
2023/03/01 02:57:13;;;;;;;2.77;2.50;;;21.50;52.80;;;;;;5004597;23;20853;-88
2023/03/01 02:59:43;;;;;;;2.20;2.00;;;21.50;52.60;;;;;;4998565;28;20446;-88
2023/03/01 03:02:35;;;;;;;2.27;2.10;;;21.50;52.60;;;;;;4997317;28;20447;-88
2023/03/01 03:05:03;;;;;;;3.00;2.37;;;21.50;52.50;;;;;;4997358;28;20475;-88
2023/03/01 03:07:30;;;;;;;3.07;2.50;;;21.50;52.50;;;;;;4997743;28;20543;-88
2023/03/01 03:09:57;;;;;;;2.67;2.47;;;21.40;52.50;;;;;;4998606;28;20440;-88
2023/03/01 03:12:24;;;;;;;2.30;2.10;;;21.40;52.50;;;;;;4996542;28;20873;-88
2023/03/01 03:14:52;;;;;;;2.83;2.13;;;21.40;52.60;;;;;;4996986;28;20491;-88
2023/03/01 03:17:19;;;;;;;2.30;2.10;;;21.40;52.50;;;;;;4997223;28;20459;-89
2023/03/01 03:19:45;;;;;;;2.20;2.00;;;21.40;52.50;;;;;;4997112;28;20528;-88
2023/03/01 03:22:12;;;;;;;2.73;2.53;;;21.40;52.60;;;;;;4997047;28;21414;-88
2023/03/01 03:24:40;;;;;;;2.33;2.10;;;21.40;52.50;;;;;;4997915;28;20535;-88
2023/03/01 03:27:07;;;;;;;2.20;2.00;;;21.40;52.60;;;;;;4997267;28;20433;-88
2023/03/01 03:29:34;;;;;;;2.53;2.33;;;21.60;52.70;;;;;;4996983;28;20444;-88
2023/03/01 03:32:02;;;;;;;2.40;2.17;;;21.30;52.50;;;;;;4997163;28;20786;-88
2023/03/01 03:34:29;;;;;;;2.60;2.40;;;21.40;52.50;;;;;;4999260;28;20499;-88
2023/03/01 03:36:59;;;;;;;2.33;2.13;;;21.40;52.50;;;;;;4997013;28;20534;-87
2023/03/01 03:39:26;;;;;;;2.40;2.13;;;21.30;52.40;;;;;;4996611;28;20450;-89
2023/03/01 03:41:53;;;;;;;2.70;2.50;;;21.30;52.40;;;;;;4996594;28;20506;-88
2023/03/01 03:44:20;;;;;;;2.10;1.90;;;21.30;52.40;;;;;;4996801;28;20452;-88
2023/03/01 03:46:47;;;;;;;2.57;2.20;;;21.50;52.60;;;;;;4996286;28;20448;-88
2023/03/01 03:49:15;;;;;;;2.30;2.13;;;21.30;52.50;;;;;;4997901;28;20878;-90
2023/03/01 03:51:42;;;;;;;2.70;2.00;;;21.30;52.40;;;;;;4995945;28;20451;-91
2023/03/01 03:54:09;;;;;;;2.30;2.10;;;21.30;52.40;;;;;;4997714;28;20489;-90
2023/03/01 03:56:35;;;;;;;1.90;1.80;;;21.30;53.00;;;;;;4997035;28;20931;-88
2023/03/01 03:59:02;;;;;;;2.93;2.73;;;21.30;52.40;;;;;;4996434;28;20441;-88
2023/03/01 04:01:29;;;;;;;1.80;1.70;;;21.30;52.50;;;;;;4997030;28;20531;-88
2023/03/01 04:03:56;;;;;;;1.83;1.73;;;21.20;52.40;;;;;;4997093;28;20958;-88
2023/03/01 04:06:24;;;;;;;2.00;1.90;;;21.20;52.30;;;;;;5001413;28;20468;-88
2023/03/01 04:08:59;;;;;;;2.10;1.90;;;21.40;52.50;;;;;;5000077;28;20441;-88
2023/03/01 04:11:29;;;;;;;2.47;2.30;;;21.20;52.50;;;;;;5001209;28;20463;-88
2023/03/01 04:13:59;;;;;;;2.20;2.00;;;21.20;52.30;;;;;;5002146;28;20513;-90
2023/03/01 04:16:27;;;;;;;2.20;2.10;;;21.20;52.40;;;;;;5002341;28;20466;-90
2023/03/01 04:18:54;;;;;;;1.97;1.80;;;21.20;52.40;;;;;;5001916;28;20440;-89
2023/03/01 04:21:21;;;;;;;2.20;2.00;;;21.20;52.30;;;;;;5001292;28;20505;-90
2023/03/01 04:23:52;;;;;;;2.10;1.90;;;21.20;52.40;;;;;;5057340;23;20468;-89
2023/03/01 04:26:22;;;;;;;2.00;1.90;;;21.20;52.40;;;;;;5001619;28;20433;-90
2023/03/01 04:28:50;;;;;;;2.30;2.10;;;21.20;52.40;;;;;;5001524;28;20436;-90
2023/03/01 04:31:21;;;;;;;2.20;2.00;;;21.20;52.40;;;;;;5002773;28;20927;-89
2023/03/01 04:33:51;;;;;;;2.20;2.00;;;21.20;52.30;;;;;;4999127;28;20486;-89
2023/03/01 04:36:19;;;;;;;2.80;2.60;;;21.20;52.30;;;;;;4997357;28;20442;-89
2023/03/01 04:38:47;;;;;;;2.03;1.93;;;21.10;52.30;;;;;;4998398;28;20464;-89
2023/03/01 04:41:17;;;;;;;2.30;2.10;;;21.10;52.30;;;;;;4999828;28;20448;-89
2023/03/01 04:43:44;;;;;;;1.90;1.80;;;21.10;52.30;;;;;;5003518;28;20443;-89
2023/03/01 04:46:13;;;;;;;1.90;1.80;;;21.10;52.30;;;;;;5003052;28;21009;-89
2023/03/01 04:48:44;;;;;;;2.33;2.07;;;21.10;52.30;;;;;;5004025;28;20808;-89
2023/03/01 04:51:13;;;;;;;1.83;1.73;;;21.10;52.30;;;;;;5007316;23;20586;-89
2023/03/01 04:53:41;;;;;;;2.90;2.60;;;21.10;52.30;;;;;;4996637;28;20506;-89
2023/03/01 04:56:08;;;;;;;1.80;1.70;;;21.10;52.30;;;;;;4998956;28;20452;-89
2023/03/01 04:58:36;;;;;;;2.50;2.30;;;21.10;52.30;;;;;;4999563;28;20446;-89
2023/03/01 05:01:14;;;;;;;2.30;2.10;;;21.10;52.30;;;;;;4999669;28;20460;-89
2023/03/01 05:03:42;;;;;;;2.00;1.80;;;21.10;52.30;;;;;;5003593;28;21122;-89
2023/03/01 05:06:09;;;;;;;2.47;2.27;;;21.10;52.30;;;;;;5007175;28;20570;-89
2023/03/01 05:08:37;;;;;;;1.80;1.70;;;21.00;52.10;;;;;;5005422;28;20436;-89
2023/03/01 05:11:05;;;;;;;1.93;1.83;;;21.00;52.20;;;;;;5003848;28;20443;-88
2023/03/01 05:13:31;;;;;;;2.10;1.90;;;21.00;52.20;;;;;;5004193;28;20472;-89
2023/03/01 05:16:01;;;;;;;2.27;2.07;;;21.00;52.20;;;;;;5002389;28;20484;-89
2023/03/01 05:18:30;;;;;;;1.90;1.80;;;21.00;52.20;;;;;;5006740;28;20421;-89
2023/03/01 05:21:04;;;;;;;2.10;2.00;;;21.00;52.20;;;;;;5006012;28;20452;-89
2023/03/01 05:23:31;;;;;;;2.40;2.03;;;21.00;52.20;;;;;;5006976;28;20432;-89
2023/03/01 05:25:59;;;;;;;1.80;1.70;;;21.00;52.20;;;;;;5005034;28;20429;-89
2023/03/01 05:28:27;;;;;;;2.17;1.80;;;21.00;52.20;;;;;;5007312;28;20481;-89
2023/03/01 05:30:54;;;;;;;2.20;2.00;;;21.00;52.80;;;;;;5004895;28;20445;-89
2023/03/01 05:33:22;;;;;;;2.40;2.20;;;21.00;52.20;;;;;;5008524;28;20955;-89
2023/03/01 05:35:51;;;;;;;1.67;1.57;;;20.90;52.10;;;;;;5007104;28;20488;-89
2023/03/01 05:38:19;;;;;;;1.90;1.80;;;21.00;52.20;;;;;;5006149;28;20458;-89
2023/03/01 05:40:48;;;;;;;2.00;1.90;;;20.90;52.10;;;;;;5005049;28;20535;-89
2023/03/01 05:45:48;;;;;;;2.90;2.03;;;20.90;52.10;;;;;;5016998;23;20822;-89
2023/03/01 05:48:14;;;;;;;2.70;2.50;;;20.90;52.10;;;;;;5007485;28;20442;-88
2023/03/01 05:50:45;;;;;;;2.40;2.10;;;20.90;52.10;;;;;;5003025;28;20450;-89
2023/03/01 05:53:14;;;;;;;2.10;2.00;;;20.90;52.10;;;;;;5002222;28;20440;-89
2023/03/01 05:55:42;;;;;;;2.30;2.10;;;20.90;52.10;;;;;;5000979;28;20507;-89
2023/03/01 05:58:13;;;;;;;2.23;2.03;;;20.90;52.10;;;;;;5001311;28;20450;-89
2023/03/01 06:00:41;;;;;;;2.00;1.90;;;20.90;52.10;;;;;;5000691;28;20458;-88
2023/03/01 06:03:07;;;;;;;3.40;2.30;;;20.90;52.10;;;;;;5001316;28;20454;-88
2023/03/01 06:05:34;;;;;;;2.17;1.97;;;20.90;52.10;;;;;;5000604;28;20813;-89
2023/03/01 06:08:03;;;;;;;2.30;2.10;;;20.90;52.10;;;;;;5001828;28;20454;-87
2023/03/01 06:10:30;;;;;;;1.90;1.70;;;20.90;52.20;;;;;;5004735;23;20477;-88
2023/03/01 06:12:57;;;;;;;2.43;2.23;;;20.80;52.00;;;;;;4983286;28;20436;-89
2023/03/01 06:15:25;;;;;;;1.83;1.73;;;20.80;52.00;;;;;;4976605;28;20489;-88
2023/03/01 06:17:54;;;;;;;2.30;2.10;;;20.80;52.10;;;;;;4986030;28;20448;-88
2023/03/01 06:20:24;;;;;;;2.20;2.00;;;20.80;52.00;;;;;;4978757;28;20484;-89
2023/03/01 06:22:51;;;;;;;2.60;2.40;;;20.80;52.00;;;;;;4987256;23;20486;-88
2023/03/01 06:25:22;;;;;;;1.80;1.70;;;20.90;52.00;;;;;;4989001;23;20539;-89
2023/03/01 06:27:49;;;;;;;2.40;1.93;;;20.90;52.10;;;;;;4979620;28;20476;-88
2023/03/01 06:30:18;;;;;;;2.10;1.90;;;20.80;52.00;;;;;;4978194;28;20467;-88
2023/03/01 06:32:47;;;;;;;2.10;1.90;;;20.80;52.00;;;;;;4978177;28;20447;-89
2023/03/01 06:35:17;;;;;;;2.77;1.87;;;20.80;52.00;;;;;;4980539;28;20487;-88
2023/03/01 06:37:44;;;;;;;2.33;2.10;;;20.80;52.10;;;;;;4983037;28;20445;-88
2023/03/01 06:40:21;;;;;;;2.00;1.90;;;20.80;52.00;;;;;;4989804;23;20516;-88
2023/03/01 06:42:51;;;;;;;3.30;2.30;;;20.80;52.00;;;;;;4960824;29;20442;-88
2023/03/01 06:45:21;;;;;;;2.40;2.17;;;20.80;52.10;;;;;;4959920;29;20790;-88
2023/03/01 06:47:50;;;;;;;2.30;2.10;;;20.80;52.10;;;;;;4963897;29;20945;-88
2023/03/01 06:50:21;;;;;;;2.90;2.70;;;20.80;52.10;;;;;;4967036;29;20438;-88
2023/03/01 06:52:48;;;;;;;2.60;2.27;;;20.80;52.10;;;;;;4964638;29;20452;-89
2023/03/01 06:55:15;;;;;;;1.97;1.70;;;20.80;52.10;;;;;;4962650;29;20477;-88
2023/03/01 06:57:41;;;;;;;2.63;2.20;;;20.80;52.10;;;;;;4964618;29;20860;-88
2023/03/01 07:00:12;;;;;;;2.10;1.80;;;20.80;52.10;;;;;;4963294;29;20936;-88
2023/03/01 07:02:39;;;;;;;2.13;1.80;;;20.80;52.10;;;;;;4964964;29;20455;-89
2023/03/01 07:05:07;;;;;;;2.20;1.90;;;20.80;52.10;;;;;;4967183;29;20509;-89
2023/03/01 07:07:35;;;;;;;1.83;1.73;;;20.80;52.20;;;;;;4966398;29;20485;-90
2023/03/01 07:12:27;;;;;;;8.83;2.30;;;20.80;52.20;;;;;;5011803;23;20516;-89
2023/03/01 07:14:54;;;;;;;1.97;1.77;;;20.80;52.40;;;;;;4998501;23;20245;-89
2023/03/01 07:17:22;;;;;;;2.70;2.20;;;20.80;52.30;;;;;;4987050;28;20449;-88
2023/03/01 07:19:49;;;;;;;1.83;1.73;;;20.80;52.20;;;;;;4961796;29;20453;-88
2023/03/01 07:22:16;;;;;;;6.10;2.07;;;20.80;52.30;;;;;;4974136;23;20456;-88
2023/03/01 07:24:43;;;;;;;2.30;2.00;;;21.00;52.50;;;;;;4967143;29;21021;-90
2023/03/01 07:27:10;;;;;;;1.80;1.70;;;20.80;52.30;;;;;;5065961;23;20481;-89
2023/03/01 07:29:37;;;;;;;1.70;1.60;;;20.80;52.40;;;;;;4985281;28;20437;-91
2023/03/01 07:32:05;;;;;;;2.17;1.97;;;20.90;52.40;;;;;;4984097;28;20778;-92
2023/03/01 07:34:33;;;;;;;1.90;1.67;;;20.80;52.40;;;;;;4985022;28;20476;-91
2023/03/01 07:37:00;;;;;;;3.73;2.67;;;21.00;52.50;;;;;;4984918;28;20445;-92
2023/03/01 07:39:27;;;;;;;2.17;1.97;;;21.00;52.50;;;;;;4985104;28;20767;-92
2023/03/01 07:41:56;;;;;;;5.37;2.10;;;20.80;52.40;;;;;;4983716;28;20516;-92
2023/03/01 07:44:23;;;;;;;2.73;1.97;;;21.00;52.50;;;;;;4983496;28;20775;-92
2023/03/01 07:46:58;;;;;;;3.53;1.80;;;20.70;52.70;;;;;;4982980;28;20457;-92
2023/03/01 07:49:26;;;;;;;2.33;2.10;;;20.90;53.30;;;;;;4981212;28;20439;-92
2023/03/01 07:51:54;;;;;;;7.30;2.10;;;20.70;53.00;;;;;;4981148;28;20552;-92
2023/03/01 07:54:21;;;;;;;2.93;2.63;;;20.80;52.50;;;;;;4978434;28;20453;-91
2023/03/01 07:56:48;;;;;;;4.70;2.30;;;20.80;52.40;;;;;;4977281;28;20818;-88
2023/03/01 07:59:15;;;;;;;2.93;2.20;;;20.70;52.30;;;;;;4975575;28;20445;-94
2023/03/01 08:01:42;;;;;;;2.27;1.90;;;20.80;52.40;;;;;;4972228;28;20810;-92
2023/03/01 08:04:10;;;;;;;2.47;2.27;;;20.80;52.60;;;;;;4956188;29;20469;-94
2023/03/01 08:06:37;;;;;;;3.50;2.20;;;20.80;52.40;;;;;;4956481;29;20450;-91
2023/03/01 08:09:05;;;;;;;4.90;2.10;;;20.90;52.30;;;;;;4956444;29;20445;-94
2023/03/01 08:11:32;;;;;;;5.80;2.20;;;20.90;52.50;;;;;;4963645;28;20450;-89
2023/03/01 08:13:58;;;;;;;5.03;2.53;;;20.90;52.80;;;;;;4975258;28;20529;-90
2023/03/01 08:16:25;;;;;;;6.07;1.93;;;21.00;52.80;;;;;;4975416;28;20853;-91
2023/03/01 08:18:54;;;;;;;3.03;1.90;;;21.00;52.90;;;;;;4975574;28;20449;-91
2023/03/01 08:21:21;;;;;;;2.60;1.87;;;20.80;52.80;;;;;;4974952;28;20453;-84
2023/03/01 08:23:50;;;;;;;5.93;1.90;;;21.00;52.70;;;;;;4975266;28;20447;-91
2023/03/01 08:26:21;;;;;;;8.00;2.40;;;21.00;51.70;;;;;;4974940;28;20452;-90
2023/03/01 08:28:49;;;;;;;7.20;2.17;;;21.10;51.80;;;;;;4975398;28;20528;-90
2023/03/01 08:31:18;;;;;;;2.30;2.10;;;21.10;52.30;;;;;;4975394;28;20441;-92
2023/03/01 08:33:50;;;;;;;2.03;1.77;;;21.20;52.70;;;;;;4975131;28;20474;-92
2023/03/01 08:36:17;;;;;;;2.23;2.00;;;21.20;52.80;;;;;;4975209;28;20507;-90
2023/03/01 08:38:44;;;;;;;3.90;2.13;;;21.30;52.70;;;;;;4974158;28;20983;-90
2023/03/01 08:41:11;;;;;;;2.53;1.83;;;21.30;52.70;;;;;;4975117;28;20873;-89
2023/03/01 08:43:39;;;;;;;3.27;1.90;;;21.40;52.70;;;;;;4974958;28;20532;-90
2023/03/01 08:46:06;;;;;;;2.03;1.80;;;21.50;52.50;;;;;;4974994;28;20441;-89
2023/03/01 08:48:33;;;;;;;2.00;1.80;;;21.70;52.30;;;;;;4974883;28;20442;-90
2023/03/01 08:51:08;;;;;;;2.27;1.73;;;21.90;52.10;;;;;;4974914;28;20441;-91
2023/03/01 08:53:35;;;;;;;1.50;1.40;;;22.10;51.90;;;;;;4974975;28;20433;-90
2023/03/01 08:56:02;;;;;;;2.20;2.00;;;22.40;51.90;;;;;;4974569;28;20512;-90
2023/03/01 08:58:29;;;;;;;3.30;2.10;;;22.50;52.20;;;;;;4974295;28;20446;-85
2023/03/01 09:00:58;;;;;;;3.10;1.77;;;22.80;50.90;;;;;;4974724;28;20445;-83
2023/03/01 09:03:26;;;;;;;1.87;1.77;;;22.70;50.00;;;;;;4974480;28;20969;-87
2023/03/01 09:05:55;;;;;;;2.40;2.20;;;22.90;50.20;;;;;;4974923;28;20442;-89
2023/03/01 09:08:22;;;;;;;4.03;2.03;;;23.20;49.90;;;;;;4974718;28;20838;-88
2023/03/01 09:10:49;;;;;;;2.30;2.10;;;23.40;50.10;;;;;;4974660;28;20545;-88
2023/03/01 09:13:16;;;;;;;2.07;1.77;;;23.70;50.00;;;;;;4974663;28;20774;-91
2023/03/01 09:15:42;;;;;;;2.60;2.40;;;23.90;49.90;;;;;;4974592;28;20495;-88
2023/03/01 09:18:11;;;;;;;2.80;2.20;;;24.10;48.80;;;;;;4972977;28;20502;-89
2023/03/01 09:20:37;;;;;;;2.53;2.10;;;24.20;49.40;;;;;;4955285;29;20452;-90
2023/03/01 09:23:04;;;;;;;3.77;1.83;;;24.40;49.40;;;;;;4959347;28;20443;-91
2023/03/01 09:25:34;;;;;;;4.10;1.77;;;24.60;49.50;;;;;;4974367;28;20444;-94
2023/03/01 09:28:01;;;;;;;3.20;2.73;;;24.80;49.40;;;;;;4957970;28;20495;-90
2023/03/01 09:30:28;;;;;;;2.03;1.63;;;24.90;49.40;;;;;;4974418;28;20454;-88
2023/03/01 09:32:57;;;;;;;2.43;1.60;;;24.90;49.40;;;;;;4974319;28;20455;-91
2023/03/01 09:35:25;;;;;;;2.60;2.07;;;24.90;49.40;;;;;;4974345;28;20488;-89
2023/03/01 09:37:52;;;;;;;2.50;1.70;;;24.80;49.60;;;;;;4974525;28;20554;-92
2023/03/01 09:40:21;;;;;;;6.43;1.70;;;24.60;50.00;;;;;;4975094;28;20475;-88
2023/03/01 09:42:53;;;;;;;4.77;3.10;;;24.40;50.10;;;;;;4974416;28;20799;-87
2023/03/01 09:45:28;;;;;;;4.03;2.13;;;24.40;50.70;;;;;;4974135;28;20444;-88
2023/03/01 09:47:57;;;;;;;5.27;2.50;;;24.30;50.70;;;;;;4970422;28;20968;-89
2023/03/01 09:50:28;;;;;;;4.73;2.50;;;24.50;50.00;;;;;;4956819;28;20460;-90
2023/03/01 09:53:02;;;;;;;5.17;2.50;;;24.40;50.30;;;;;;4958458;29;20475;-90
2023/03/01 09:55:34;;;;;;;5.00;1.80;;;24.60;50.20;;;;;;4970557;28;20490;-90
2023/03/01 09:58:06;;;;;;;8.10;1.90;;;24.80;50.00;;;;;;4977899;28;20453;-86
2023/03/01 10:00:40;;;;;;;5.33;1.97;;;25.00;48.50;;;;;;4977595;28;20511;-90
2023/03/01 10:03:16;;;;;;;2.40;1.70;;;25.10;48.90;;;;;;4977869;28;20900;-90
2023/03/01 10:05:57;;;;;;;6.97;2.07;;;25.20;49.10;;;;;;4977485;28;20440;-92
2023/03/01 10:08:41;;;;;;;5.33;2.00;;;25.30;49.30;;;;;;4977549;28;20459;-86
2023/03/01 10:11:20;;;;;;;2.47;2.27;;;25.20;48.30;;;;;;4977371;28;20447;-89
2023/03/01 10:13:54;;;;;;;21.83;2.00;;;25.30;48.60;;;;;;4977582;28;20451;-93
2023/03/01 10:16:28;;;;;;;1.70;1.47;;;25.00;49.10;;;;;;4979014;28;20569;-91
2023/03/01 17:50:52;;;;;;;2.80;1.67;;;22.00;49.90;;;;;;4973203;28;20870;-92
2023/03/01 17:53:20;;;;;;;7.97;2.00;;;22.20;50.00;;;;;;4937908;29;20449;-87
2023/03/01 17:55:52;;;;;;;5.23;1.73;;;22.10;50.30;;;;;;4960549;28;20458;-91
2023/03/01 18:42:13;;;;;;;2.97;1.50;;;22.20;51.50;;;;;;4980573;23;20592;-89
2023/03/01 18:44:43;;;;;;;2.00;1.80;;;22.20;51.50;;;;;;4986565;28;20507;-90
2023/03/01 18:47:13;;;;;;;1.60;1.40;;;22.20;51.60;;;;;;4982160;28;20556;-91
2023/03/01 18:49:41;;;;;;;1.93;1.73;;;22.30;51.60;;;;;;4984576;28;20445;-90
2023/03/01 18:52:12;;;;;;;3.50;1.70;;;22.30;51.70;;;;;;4985390;28;20465;-93
2023/03/01 18:54:46;;;;;;;5.10;2.03;;;22.30;51.70;;;;;;4985402;28;20544;-90
2023/03/01 18:57:15;;;;;;;5.50;1.67;;;22.30;51.70;;;;;;4980303;28;20531;-96
2023/03/01 18:59:41;;;;;;;2.47;1.77;;;22.30;51.70;;;;;;4983311;28;20450;-91
2023/03/01 19:02:10;;;;;;;2.60;2.10;;;22.20;51.30;;;;;;4981828;28;20879;-92
2023/03/01 19:04:37;;;;;;;5.93;1.73;;;22.40;51.80;;;;;;4983474;28;20445;-96
2023/03/01 19:07:06;;;;;;;2.37;2.00;;;22.20;51.40;;;;;;4984445;28;20461;-96
2023/03/01 19:09:33;;;;;;;1.90;1.80;;;22.30;51.60;;;;;;4983204;28;20453;-92
2023/03/01 19:12:02;;;;;;;2.27;1.83;;;22.20;51.50;;;;;;4984330;28;20541;-92
2023/03/01 19:14:30;;;;;;;1.80;1.70;;;22.30;51.80;;;;;;4966679;28;20449;-94
2023/03/01 19:16:57;;;;;;;3.30;1.77;;;22.20;51.70;;;;;;4983261;28;20470;-95
2023/03/01 19:19:24;;;;;;;1.60;1.50;;;22.30;52.00;;;;;;4982640;28;20205;-94
2023/03/01 19:21:51;;;;;;;6.30;1.50;;;22.20;51.80;;;;;;4977755;28;20453;-94
2023/03/01 19:24:18;;;;;;;2.00;1.90;;;22.20;51.70;;;;;;4976441;28;20458;-90
2023/03/01 19:26:45;;;;;;;2.40;1.97;;;22.20;51.60;;;;;;4976445;28;20448;-94
2023/03/01 19:29:12;;;;;;;8.17;2.23;;;22.20;51.70;;;;;;4976746;28;20438;-93
2023/03/01 19:31:40;;;;;;;2.27;2.07;;;22.20;51.70;;;;;;4976853;28;20441;-93
2023/03/01 19:34:07;;;;;;;2.23;1.63;;;22.20;51.80;;;;;;4976576;28;20492;-93
2023/03/01 19:36:34;;;;;;;1.87;1.77;;;22.20;51.80;;;;;;4976497;28;20943;-96
2023/03/01 19:39:01;;;;;;;1.80;1.70;;;22.20;51.90;;;;;;4976281;28;20479;-96
2023/03/01 19:41:29;;;;;;;3.73;2.00;;;22.20;51.90;;;;;;4976725;28;20538;-96
2023/03/01 19:43:57;;;;;;;2.17;1.97;;;22.20;51.90;;;;;;4976522;28;20482;-93
2023/03/01 19:46:24;;;;;;;3.03;2.00;;;22.30;51.60;;;;;;4976577;28;20956;-96
2023/03/01 19:48:53;;;;;;;1.70;1.60;;;22.20;51.10;;;;;;4976030;28;20457;-91
2023/03/01 19:51:20;;;;;;;2.20;2.00;;;22.20;51.70;;;;;;4976096;28;20457;-90
2023/03/01 19:53:47;;;;;;;2.27;1.77;;;22.20;51.80;;;;;;4976040;28;20811;-90
2023/03/01 19:56:14;;;;;;;2.63;1.90;;;22.20;51.90;;;;;;4975733;28;20456;-90
2023/03/01 19:58:42;;;;;;;2.37;2.17;;;22.20;52.00;;;;;;4976189;28;20854;-91
2023/03/01 20:01:15;;;;;;;5.50;2.00;;;22.20;51.90;;;;;;4978453;28;20533;-93
2023/03/01 20:03:42;;;;;;;3.17;2.00;;;22.20;51.90;;;;;;4980645;28;20477;-94
2023/03/01 20:06:12;;;;;;;7.80;1.63;;;22.20;52.00;;;;;;4981135;28;20477;-89
2023/03/01 20:08:39;;;;;;;4.40;2.37;;;22.20;51.90;;;;;;4976222;28;20425;-89
2023/03/01 20:11:10;;;;;;;6.13;1.87;;;22.20;51.30;;;;;;4975572;28;20445;-90
2023/03/01 20:13:37;;;;;;;3.67;1.70;;;22.10;51.50;;;;;;4975810;28;20438;-89
2023/03/01 20:16:05;;;;;;;6.03;1.77;;;22.20;51.70;;;;;;4975886;28;20457;-87
2023/03/01 20:18:32;;;;;;;2.80;1.70;;;22.10;51.40;;;;;;4975687;28;20449;-89
2023/03/01 20:20:59;;;;;;;5.57;2.00;;;22.20;51.70;;;;;;4975222;28;20963;-88
2023/03/01 20:23:28;;;;;;;2.27;1.70;;;22.20;51.80;;;;;;4975506;28;20451;-87
2023/03/01 20:26:03;;;;;;;4.00;2.10;;;22.20;51.90;;;;;;4975083;28;20449;-88
2023/03/01 20:28:30;;;;;;;3.47;2.80;;;22.20;52.00;;;;;;4975529;28;20442;-89
2023/03/01 20:31:03;;;;;;;1.77;1.53;;;22.20;51.90;;;;;;4975295;28;20535;-88
2023/03/01 20:33:30;;;;;;;2.97;1.90;;;22.10;51.90;;;;;;4974650;28;20556;-89
2023/03/01 20:35:57;;;;;;;2.07;1.87;;;22.20;52.00;;;;;;4975303;28;20533;-89
2023/03/01 20:38:25;;;;;;;2.77;1.77;;;22.20;52.10;;;;;;4975046;28;20485;-87
2023/03/01 20:40:57;;;;;;;3.10;1.70;;;22.10;52.10;;;;;;4964920;28;20537;-91
2023/03/01 20:43:24;;;;;;;1.97;1.80;;;22.10;52.00;;;;;;4954898;28;20481;-88
2023/03/01 20:45:51;;;;;;;1.93;1.73;;;22.10;52.10;;;;;;4955151;29;20451;-88
2023/03/01 20:48:17;;;;;;;3.00;2.13;;;22.10;52.10;;;;;;4954875;29;20457;-89
2023/03/01 20:50:44;;;;;;;5.33;1.87;;;22.10;52.80;;;;;;4954938;29;20451;-89
2023/03/01 20:53:11;;;;;;;2.80;2.20;;;22.10;52.20;;;;;;4955025;29;20809;-88
2023/03/01 20:55:38;;;;;;;1.60;1.40;;;22.10;52.20;;;;;;4954916;29;20446;-89
2023/03/01 20:58:06;;;;;;;2.43;1.73;;;22.20;52.30;;;;;;4954952;29;20502;-89
2023/03/01 21:00:33;;;;;;;1.60;1.47;;;22.10;52.20;;;;;;4955104;29;20454;-88
2023/03/01 21:03:00;;;;;;;1.83;1.73;;;22.10;52.20;;;;;;4954560;29;20478;-90
2023/03/01 21:05:26;;;;;;;3.80;1.90;;;22.10;52.20;;;;;;4965062;28;20537;-89
2023/03/01 21:07:54;;;;;;;9.20;2.10;;;22.10;52.20;;;;;;4974133;28;20445;-89
2023/03/01 21:10:21;;;;;;;2.70;1.90;;;22.20;52.20;;;;;;4974490;28;20445;-90
2023/03/01 21:13:04;;;;;;;2.20;2.00;;;22.10;52.20;;;;;;4960968;28;20456;-96
2023/03/01 21:15:38;;;;;;;1.83;1.50;;;22.10;52.20;;;;;;4960907;28;20470;-95
2023/03/01 21:18:10;;;;;;;2.00;1.70;;;22.10;52.20;;;;;;4957641;29;20500;-96
2023/03/01 21:20:41;;;;;;;3.13;2.20;;;22.10;52.30;;;;;;4967369;29;20470;-96